sensor_id;sensor_type;location;lat;lon;timestamp;temperature;humidity
12632;DHT22;6381;45.748;12.106;2023-12-20T00:00:41;6.70;87.80
12632;DHT22;6381;45.748;12.106;2023-12-20T00:03:12;6.80;86.30
12632;DHT22;6381;45.748;12.106;2023-12-20T00:05:42;6.70;87.00
12632;DHT22;6381;45.748;12.106;2023-12-20T00:08:12;6.80;86.70
12632;DHT22;6381;45.748;12.106;2023-12-20T00:10:42;6.60;85.50
12632;DHT22;6381;45.748;12.106;2023-12-20T00:13:14;6.40;86.00
12632;DHT22;6381;45.748;12.106;2023-12-20T00:15:43;6.40;87.90
12632;DHT22;6381;45.748;12.106;2023-12-20T00:18:14;6.50;88.90
12632;DHT22;6381;45.748;12.106;2023-12-20T00:20:44;6.30;89.20
12632;DHT22;6381;45.748;12.106;2023-12-20T00:23:14;6.60;90.20
12632;DHT22;6381;45.748;12.106;2023-12-20T00:25:44;6.60;89.90
12632;DHT22;6381;45.748;12.106;2023-12-20T00:28:17;6.30;89.30
12632;DHT22;6381;45.748;12.106;2023-12-20T00:30:47;6.20;89.80
12632;DHT22;6381;45.748;12.106;2023-12-20T00:33:18;6.00;90.90
12632;DHT22;6381;45.748;12.106;2023-12-20T00:35:49;6.30;91.50
12632;DHT22;6381;45.748;12.106;2023-12-20T00:38:19;6.30;90.20
12632;DHT22;6381;45.748;12.106;2023-12-20T00:40:49;6.10;91.00
12632;DHT22;6381;45.748;12.106;2023-12-20T00:43:21;6.20;92.40
12632;DHT22;6381;45.748;12.106;2023-12-20T00:45:52;6.20;92.00
12632;DHT22;6381;45.748;12.106;2023-12-20T00:48:23;6.40;92.20
12632;DHT22;6381;45.748;12.106;2023-12-20T00:50:56;6.10;90.80
12632;DHT22;6381;45.748;12.106;2023-12-20T00:53:26;6.00;90.80
12632;DHT22;6381;45.748;12.106;2023-12-20T00:55:56;6.30;92.30
12632;DHT22;6381;45.748;12.106;2023-12-20T00:58:28;6.30;92.20
12632;DHT22;6381;45.748;12.106;2023-12-20T01:00:58;6.20;91.60
12632;DHT22;6381;45.748;12.106;2023-12-20T01:03:27;6.20;91.90
12632;DHT22;6381;45.748;12.106;2023-12-20T01:05:57;6.30;90.90
12632;DHT22;6381;45.748;12.106;2023-12-20T01:08:26;6.40;91.20
12632;DHT22;6381;45.748;12.106;2023-12-20T01:10:57;6.30;91.20
12632;DHT22;6381;45.748;12.106;2023-12-20T01:13:28;6.10;91.50
12632;DHT22;6381;45.748;12.106;2023-12-20T01:15:58;6.20;91.00
12632;DHT22;6381;45.748;12.106;2023-12-20T01:18:28;6.10;91.00
12632;DHT22;6381;45.748;12.106;2023-12-20T01:21:02;5.60;90.90
12632;DHT22;6381;45.748;12.106;2023-12-20T01:23:33;5.70;92.00
12632;DHT22;6381;45.748;12.106;2023-12-20T01:26:03;5.90;92.00
12632;DHT22;6381;45.748;12.106;2023-12-20T01:28:36;5.70;91.50
12632;DHT22;6381;45.748;12.106;2023-12-20T01:31:06;5.30;92.00
12632;DHT22;6381;45.748;12.106;2023-12-20T01:33:37;5.70;93.00
12632;DHT22;6381;45.748;12.106;2023-12-20T01:36:07;5.50;93.30
12632;DHT22;6381;45.748;12.106;2023-12-20T01:38:37;5.60;93.20
12632;DHT22;6381;45.748;12.106;2023-12-20T01:41:07;5.40;92.50
12632;DHT22;6381;45.748;12.106;2023-12-20T01:43:38;5.40;93.30
12632;DHT22;6381;45.748;12.106;2023-12-20T01:46:19;5.60;92.30
12632;DHT22;6381;45.748;12.106;2023-12-20T01:48:50;5.60;91.80
12632;DHT22;6381;45.748;12.106;2023-12-20T01:51:21;5.70;92.00
12632;DHT22;6381;45.748;12.106;2023-12-20T01:53:52;6.00;91.70
12632;DHT22;6381;45.748;12.106;2023-12-20T01:56:21;6.00;91.00
12632;DHT22;6381;45.748;12.106;2023-12-20T01:58:54;5.90;90.30
12632;DHT22;6381;45.748;12.106;2023-12-20T02:01:25;6.00;90.50
12632;DHT22;6381;45.748;12.106;2023-12-20T02:03:57;5.90;90.80
12632;DHT22;6381;45.748;12.106;2023-12-20T02:06:30;5.70;90.90
12632;DHT22;6381;45.748;12.106;2023-12-20T02:09:01;5.70;90.90
12632;DHT22;6381;45.748;12.106;2023-12-20T02:11:31;5.40;91.50
12632;DHT22;6381;45.748;12.106;2023-12-20T02:14:02;5.20;92.60
12632;DHT22;6381;45.748;12.106;2023-12-20T02:16:32;5.60;91.70
12632;DHT22;6381;45.748;12.106;2023-12-20T02:19:03;5.70;91.20
12632;DHT22;6381;45.748;12.106;2023-12-20T02:21:35;5.80;91.10
12632;DHT22;6381;45.748;12.106;2023-12-20T02:24:05;5.80;90.40
12632;DHT22;6381;45.748;12.106;2023-12-20T02:26:36;5.70;90.20
12632;DHT22;6381;45.748;12.106;2023-12-20T02:29:06;6.20;90.00
12632;DHT22;6381;45.748;12.106;2023-12-20T02:31:35;6.00;89.50
12632;DHT22;6381;45.748;12.106;2023-12-20T02:34:05;6.00;89.60
12632;DHT22;6381;45.748;12.106;2023-12-20T02:36:37;6.00;89.20
12632;DHT22;6381;45.748;12.106;2023-12-20T02:39:07;6.00;90.40
12632;DHT22;6381;45.748;12.106;2023-12-20T02:41:37;5.90;90.40
12632;DHT22;6381;45.748;12.106;2023-12-20T02:44:08;6.00;90.60
12632;DHT22;6381;45.748;12.106;2023-12-20T02:46:40;6.10;90.70
12632;DHT22;6381;45.748;12.106;2023-12-20T02:49:11;5.90;90.60
12632;DHT22;6381;45.748;12.106;2023-12-20T02:51:42;6.10;90.80
12632;DHT22;6381;45.748;12.106;2023-12-20T02:54:12;6.00;90.60
12632;DHT22;6381;45.748;12.106;2023-12-20T02:56:42;5.90;90.60
12632;DHT22;6381;45.748;12.106;2023-12-20T02:59:11;5.80;90.40
12632;DHT22;6381;45.748;12.106;2023-12-20T03:01:43;5.90;89.40
12632;DHT22;6381;45.748;12.106;2023-12-20T03:04:13;5.90;89.40
12632;DHT22;6381;45.748;12.106;2023-12-20T03:06:45;6.00;89.60
12632;DHT22;6381;45.748;12.106;2023-12-20T03:09:15;6.00;87.90
12632;DHT22;6381;45.748;12.106;2023-12-20T03:11:45;6.00;88.80
12632;DHT22;6381;45.748;12.106;2023-12-20T03:14:15;6.00;89.50
12632;DHT22;6381;45.748;12.106;2023-12-20T03:16:47;5.90;88.40
12632;DHT22;6381;45.748;12.106;2023-12-20T03:19:19;5.70;88.80
12632;DHT22;6381;45.748;12.106;2023-12-20T03:21:50;5.70;89.30
12632;DHT22;6381;45.748;12.106;2023-12-20T03:24:21;6.00;89.80
12632;DHT22;6381;45.748;12.106;2023-12-20T03:26:51;6.00;89.00
12632;DHT22;6381;45.748;12.106;2023-12-20T03:29:21;6.00;89.70
12632;DHT22;6381;45.748;12.106;2023-12-20T03:31:51;5.70;89.30
12632;DHT22;6381;45.748;12.106;2023-12-20T03:34:21;5.60;90.00
12632;DHT22;6381;45.748;12.106;2023-12-20T03:36:54;5.60;90.70
12632;DHT22;6381;45.748;12.106;2023-12-20T03:39:24;5.60;91.00
12632;DHT22;6381;45.748;12.106;2023-12-20T03:41:54;5.50;91.10
12632;DHT22;6381;45.748;12.106;2023-12-20T03:44:24;5.20;91.60
12632;DHT22;6381;45.748;12.106;2023-12-20T03:46:54;4.90;92.60
12632;DHT22;6381;45.748;12.106;2023-12-20T03:49:23;5.10;93.80
12632;DHT22;6381;45.748;12.106;2023-12-20T03:51:56;5.10;93.50
12632;DHT22;6381;45.748;12.106;2023-12-20T03:54:25;5.10;93.40
12632;DHT22;6381;45.748;12.106;2023-12-20T03:56:57;4.80;93.90
12632;DHT22;6381;45.748;12.106;2023-12-20T03:59:27;4.50;95.00
12632;DHT22;6381;45.748;12.106;2023-12-20T04:01:57;4.40;95.80
12632;DHT22;6381;45.748;12.106;2023-12-20T04:04:27;4.60;97.10
12632;DHT22;6381;45.748;12.106;2023-12-20T04:06:59;4.70;96.80
12632;DHT22;6381;45.748;12.106;2023-12-20T04:09:29;4.60;96.90
12632;DHT22;6381;45.748;12.106;2023-12-20T04:11:59;4.50;97.20
12632;DHT22;6381;45.748;12.106;2023-12-20T04:14:29;4.40;97.30
12632;DHT22;6381;45.748;12.106;2023-12-20T04:16:59;4.60;97.60
12632;DHT22;6381;45.748;12.106;2023-12-20T04:19:32;4.60;97.40
12632;DHT22;6381;45.748;12.106;2023-12-20T04:22:05;4.80;97.60
12632;DHT22;6381;45.748;12.106;2023-12-20T04:24:35;4.60;97.40
12632;DHT22;6381;45.748;12.106;2023-12-20T04:27:06;4.80;97.60
12632;DHT22;6381;45.748;12.106;2023-12-20T04:29:36;5.10;98.00
12632;DHT22;6381;45.748;12.106;2023-12-20T04:32:07;4.80;97.50
12632;DHT22;6381;45.748;12.106;2023-12-20T04:34:38;5.50;97.30
12632;DHT22;6381;45.748;12.106;2023-12-20T04:37:10;5.10;96.20
12632;DHT22;6381;45.748;12.106;2023-12-20T04:39:41;5.20;96.60
12632;DHT22;6381;45.748;12.106;2023-12-20T04:42:12;5.30;97.00
12632;DHT22;6381;45.748;12.106;2023-12-20T04:44:43;5.80;97.50
12632;DHT22;6381;45.748;12.106;2023-12-20T04:47:14;5.80;96.20
12632;DHT22;6381;45.748;12.106;2023-12-20T04:49:45;5.70;95.20
12632;DHT22;6381;45.748;12.106;2023-12-20T04:52:17;5.80;94.90
12632;DHT22;6381;45.748;12.106;2023-12-20T04:54:51;6.00;94.10
12632;DHT22;6381;45.748;12.106;2023-12-20T04:57:22;6.00;93.50
12632;DHT22;6381;45.748;12.106;2023-12-20T04:59:54;5.90;93.10
12632;DHT22;6381;45.748;12.106;2023-12-20T05:02:26;5.40;92.60
12632;DHT22;6381;45.748;12.106;2023-12-20T05:04:56;5.20;93.50
12632;DHT22;6381;45.748;12.106;2023-12-20T05:07:29;5.30;94.60
12632;DHT22;6381;45.748;12.106;2023-12-20T05:10:02;5.50;94.60
12632;DHT22;6381;45.748;12.106;2023-12-20T05:12:32;5.40;93.70
12632;DHT22;6381;45.748;12.106;2023-12-20T05:15:03;5.50;94.30
12632;DHT22;6381;45.748;12.106;2023-12-20T05:17:34;5.40;93.70
12632;DHT22;6381;45.748;12.106;2023-12-20T05:20:07;5.40;94.00
12632;DHT22;6381;45.748;12.106;2023-12-20T05:22:41;5.40;94.00
12632;DHT22;6381;45.748;12.106;2023-12-20T05:25:10;5.60;94.00
12632;DHT22;6381;45.748;12.106;2023-12-20T05:27:40;5.40;93.60
12632;DHT22;6381;45.748;12.106;2023-12-20T05:30:11;5.40;93.80
12632;DHT22;6381;45.748;12.106;2023-12-20T05:32:42;5.60;94.60
12632;DHT22;6381;45.748;12.106;2023-12-20T05:35:14;5.70;95.50
12632;DHT22;6381;45.748;12.106;2023-12-20T05:37:45;5.80;95.00
12632;DHT22;6381;45.748;12.106;2023-12-20T05:40:16;5.80;94.60
12632;DHT22;6381;45.748;12.106;2023-12-20T05:42:46;5.70;94.30
12632;DHT22;6381;45.748;12.106;2023-12-20T05:45:16;5.70;94.20
12632;DHT22;6381;45.748;12.106;2023-12-20T05:47:46;5.70;94.40
12632;DHT22;6381;45.748;12.106;2023-12-20T05:50:16;5.50;94.30
12632;DHT22;6381;45.748;12.106;2023-12-20T05:52:48;5.50;94.80
12632;DHT22;6381;45.748;12.106;2023-12-20T05:55:19;5.40;95.40
12632;DHT22;6381;45.748;12.106;2023-12-20T05:57:50;5.40;96.40
12632;DHT22;6381;45.748;12.106;2023-12-20T06:00:20;5.20;96.50
12632;DHT22;6381;45.748;12.106;2023-12-20T06:02:50;5.20;97.20
12632;DHT22;6381;45.748;12.106;2023-12-20T06:05:21;5.30;98.10
12632;DHT22;6381;45.748;12.106;2023-12-20T06:07:55;5.40;97.70
12632;DHT22;6381;45.748;12.106;2023-12-20T06:10:31;5.30;97.20
12632;DHT22;6381;45.748;12.106;2023-12-20T06:13:01;5.30;97.60
12632;DHT22;6381;45.748;12.106;2023-12-20T06:15:34;5.20;97.20
12632;DHT22;6381;45.748;12.106;2023-12-20T06:18:05;5.10;97.50
12632;DHT22;6381;45.748;12.106;2023-12-20T06:20:36;5.30;98.20
12632;DHT22;6381;45.748;12.106;2023-12-20T06:23:08;5.30;98.20
12632;DHT22;6381;45.748;12.106;2023-12-20T06:25:38;5.50;97.90
12632;DHT22;6381;45.748;12.106;2023-12-20T06:28:07;5.60;98.00
12632;DHT22;6381;45.748;12.106;2023-12-20T06:30:39;5.60;98.40
12632;DHT22;6381;45.748;12.106;2023-12-20T06:33:11;5.70;98.80
12632;DHT22;6381;45.748;12.106;2023-12-20T06:35:41;5.70;98.20
12632;DHT22;6381;45.748;12.106;2023-12-20T06:38:13;5.70;97.90
12632;DHT22;6381;45.748;12.106;2023-12-20T06:40:44;5.60;98.20
12632;DHT22;6381;45.748;12.106;2023-12-20T06:43:14;5.50;98.50
12632;DHT22;6381;45.748;12.106;2023-12-20T06:46:04;5.50;98.10
12632;DHT22;6381;45.748;12.106;2023-12-20T06:48:37;5.50;97.50
12632;DHT22;6381;45.748;12.106;2023-12-20T06:51:10;5.60;97.60
12632;DHT22;6381;45.748;12.106;2023-12-20T06:53:44;5.60;97.80
12632;DHT22;6381;45.748;12.106;2023-12-20T06:56:16;5.60;97.50
12632;DHT22;6381;45.748;12.106;2023-12-20T06:58:47;5.70;97.20
12632;DHT22;6381;45.748;12.106;2023-12-20T07:01:18;5.70;97.00
12632;DHT22;6381;45.748;12.106;2023-12-20T07:03:51;5.70;97.40
12632;DHT22;6381;45.748;12.106;2023-12-20T07:06:21;5.70;97.20
12632;DHT22;6381;45.748;12.106;2023-12-20T07:08:55;5.80;97.10
12632;DHT22;6381;45.748;12.106;2023-12-20T07:11:30;6.00;97.30
12632;DHT22;6381;45.748;12.106;2023-12-20T07:14:08;6.00;96.70
12632;DHT22;6381;45.748;12.106;2023-12-20T07:16:46;5.80;96.40
12632;DHT22;6381;45.748;12.106;2023-12-20T07:19:26;6.00;96.40
12632;DHT22;6381;45.748;12.106;2023-12-20T07:21:57;5.80;96.50
12632;DHT22;6381;45.748;12.106;2023-12-20T07:24:29;6.20;97.00
12632;DHT22;6381;45.748;12.106;2023-12-20T07:26:59;6.00;97.50
12632;DHT22;6381;45.748;12.106;2023-12-20T07:29:29;6.00;97.60
12632;DHT22;6381;45.748;12.106;2023-12-20T07:32:02;6.20;97.60
12632;DHT22;6381;45.748;12.106;2023-12-20T07:34:36;6.10;97.20
12632;DHT22;6381;45.748;12.106;2023-12-20T07:37:06;6.10;97.60
12632;DHT22;6381;45.748;12.106;2023-12-20T07:39:40;5.80;98.10
12632;DHT22;6381;45.748;12.106;2023-12-20T07:42:10;5.80;99.00
12632;DHT22;6381;45.748;12.106;2023-12-20T07:44:40;5.80;99.10
12632;DHT22;6381;45.748;12.106;2023-12-20T07:47:10;5.80;99.00
12632;DHT22;6381;45.748;12.106;2023-12-20T07:49:44;5.90;99.20
12632;DHT22;6381;45.748;12.106;2023-12-20T07:52:14;5.90;98.90
12632;DHT22;6381;45.748;12.106;2023-12-20T07:54:46;6.10;98.70
12632;DHT22;6381;45.748;12.106;2023-12-20T07:57:15;6.30;98.50
12632;DHT22;6381;45.748;12.106;2023-12-20T07:59:45;6.40;98.50
12632;DHT22;6381;45.748;12.106;2023-12-20T08:02:15;6.40;98.40
12632;DHT22;6381;45.748;12.106;2023-12-20T08:04:45;6.30;98.70
12632;DHT22;6381;45.748;12.106;2023-12-20T08:07:15;6.40;99.80
12632;DHT22;6381;45.748;12.106;2023-12-20T08:09:46;6.60;98.70
12632;DHT22;6381;45.748;12.106;2023-12-20T08:12:16;6.60;98.90
12632;DHT22;6381;45.748;12.106;2023-12-20T08:14:46;6.80;98.20
12632;DHT22;6381;45.748;12.106;2023-12-20T08:17:15;6.60;97.90
12632;DHT22;6381;45.748;12.106;2023-12-20T08:19:47;6.80;98.70
12632;DHT22;6381;45.748;12.106;2023-12-20T08:22:17;7.00;98.70
12632;DHT22;6381;45.748;12.106;2023-12-20T08:24:48;6.90;98.10
12632;DHT22;6381;45.748;12.106;2023-12-20T08:27:18;7.10;98.10
12632;DHT22;6381;45.748;12.106;2023-12-20T08:29:48;7.30;98.70
12632;DHT22;6381;45.748;12.106;2023-12-20T08:32:18;7.20;96.80
12632;DHT22;6381;45.748;12.106;2023-12-20T08:34:48;7.20;97.10
12632;DHT22;6381;45.748;12.106;2023-12-20T08:37:19;7.20;97.00
12632;DHT22;6381;45.748;12.106;2023-12-20T08:39:50;7.10;96.00
12632;DHT22;6381;45.748;12.106;2023-12-20T08:42:20;7.10;95.80
12632;DHT22;6381;45.748;12.106;2023-12-20T08:44:50;7.40;95.40
12632;DHT22;6381;45.748;12.106;2023-12-20T08:47:20;7.70;95.70
12632;DHT22;6381;45.748;12.106;2023-12-20T08:49:52;7.70;95.70
12632;DHT22;6381;45.748;12.106;2023-12-20T08:52:24;7.60;95.70
12632;DHT22;6381;45.748;12.106;2023-12-20T08:54:57;7.80;95.60
12632;DHT22;6381;45.748;12.106;2023-12-20T08:57:27;7.90;95.10
12632;DHT22;6381;45.748;12.106;2023-12-20T08:59:57;7.80;93.90
12632;DHT22;6381;45.748;12.106;2023-12-20T09:02:26;7.80;94.90
12632;DHT22;6381;45.748;12.106;2023-12-20T09:04:57;7.90;93.60
12632;DHT22;6381;45.748;12.106;2023-12-20T09:07:28;8.00;94.10
12632;DHT22;6381;45.748;12.106;2023-12-20T09:10:01;8.00;94.20
12632;DHT22;6381;45.748;12.106;2023-12-20T09:12:32;8.00;94.10
12632;DHT22;6381;45.748;12.106;2023-12-20T09:15:02;8.10;94.30
12632;DHT22;6381;45.748;12.106;2023-12-20T09:17:32;8.00;92.60
12632;DHT22;6381;45.748;12.106;2023-12-20T09:20:03;8.40;93.40
12632;DHT22;6381;45.748;12.106;2023-12-20T09:22:35;8.30;93.10
12632;DHT22;6381;45.748;12.106;2023-12-20T09:25:09;8.40;93.20
12632;DHT22;6381;45.748;12.106;2023-12-20T09:27:39;8.50;92.70
12632;DHT22;6381;45.748;12.106;2023-12-20T09:30:10;8.60;92.00
12632;DHT22;6381;45.748;12.106;2023-12-20T09:32:52;8.80;92.40
12632;DHT22;6381;45.748;12.106;2023-12-20T09:35:22;8.90;92.20
12632;DHT22;6381;45.748;12.106;2023-12-20T09:37:53;8.90;92.20
12632;DHT22;6381;45.748;12.106;2023-12-20T09:40:26;8.80;92.90
12632;DHT22;6381;45.748;12.106;2023-12-20T09:42:58;8.80;93.40
12632;DHT22;6381;45.748;12.106;2023-12-20T09:45:28;8.90;93.80
12632;DHT22;6381;45.748;12.106;2023-12-20T09:47:59;9.00;94.30
12632;DHT22;6381;45.748;12.106;2023-12-20T09:50:31;8.90;95.00
12632;DHT22;6381;45.748;12.106;2023-12-20T09:53:03;9.00;95.40
12632;DHT22;6381;45.748;12.106;2023-12-20T09:55:36;9.00;95.90
12632;DHT22;6381;45.748;12.106;2023-12-20T09:58:06;8.90;95.80
12632;DHT22;6381;45.748;12.106;2023-12-20T10:00:36;9.00;96.10
12632;DHT22;6381;45.748;12.106;2023-12-20T10:03:06;8.90;96.40
12632;DHT22;6381;45.748;12.106;2023-12-20T10:05:40;8.70;96.90
12632;DHT22;6381;45.748;12.106;2023-12-20T10:08:25;8.70;97.20
12632;DHT22;6381;45.748;12.106;2023-12-20T10:10:56;8.80;98.20
12632;DHT22;6381;45.748;12.106;2023-12-20T10:13:32;8.80;98.90
12632;DHT22;6381;45.748;12.106;2023-12-20T10:16:03;8.90;99.50
12632;DHT22;6381;45.748;12.106;2023-12-20T10:18:33;8.70;99.90
12632;DHT22;6381;45.748;12.106;2023-12-20T10:21:09;10.90;99.90
12632;DHT22;6381;45.748;12.106;2023-12-20T10:23:41;9.00;99.90
12632;DHT22;6381;45.748;12.106;2023-12-20T10:26:20;8.80;99.60
12632;DHT22;6381;45.748;12.106;2023-12-20T10:28:51;8.90;99.70
12632;DHT22;6381;45.748;12.106;2023-12-20T10:31:31;9.10;98.70
12632;DHT22;6381;45.748;12.106;2023-12-20T10:34:02;9.20;98.60
12632;DHT22;6381;45.748;12.106;2023-12-20T10:36:34;9.20;97.20
12632;DHT22;6381;45.748;12.106;2023-12-20T10:39:08;9.10;97.10
12632;DHT22;6381;45.748;12.106;2023-12-20T10:41:41;9.20;96.80
12632;DHT22;6381;45.748;12.106;2023-12-20T10:44:13;9.10;96.00
12632;DHT22;6381;45.748;12.106;2023-12-20T10:46:43;9.30;95.50
12632;DHT22;6381;45.748;12.106;2023-12-20T10:49:20;9.30;93.80
12632;DHT22;6381;45.748;12.106;2023-12-20T10:51:53;9.30;94.00
12632;DHT22;6381;45.748;12.106;2023-12-20T10:54:26;9.30;94.50
12632;DHT22;6381;45.748;12.106;2023-12-20T10:56:58;9.40;94.70
12632;DHT22;6381;45.748;12.106;2023-12-20T10:59:30;9.60;94.50
12632;DHT22;6381;45.748;12.106;2023-12-20T11:02:04;9.60;92.90
12632;DHT22;6381;45.748;12.106;2023-12-20T11:04:44;9.70;93.40
12632;DHT22;6381;45.748;12.106;2023-12-20T11:07:23;9.60;92.60
12632;DHT22;6381;45.748;12.106;2023-12-20T11:10:00;9.70;94.10
12632;DHT22;6381;45.748;12.106;2023-12-20T11:12:39;9.70;90.50
12632;DHT22;6381;45.748;12.106;2023-12-20T11:15:14;9.70;90.30
12632;DHT22;6381;45.748;12.106;2023-12-20T11:17:45;9.50;90.10
12632;DHT22;6381;45.748;12.106;2023-12-20T11:20:20;9.40;90.50
12632;DHT22;6381;45.748;12.106;2023-12-20T11:22:53;9.50;90.50
12632;DHT22;6381;45.748;12.106;2023-12-20T11:25:24;9.40;91.10
12632;DHT22;6381;45.748;12.106;2023-12-20T11:28:14;9.50;91.40
12632;DHT22;6381;45.748;12.106;2023-12-20T11:30:49;9.60;91.40
12632;DHT22;6381;45.748;12.106;2023-12-20T11:33:22;9.60;91.70
12632;DHT22;6381;45.748;12.106;2023-12-20T11:35:57;9.70;92.10
12632;DHT22;6381;45.748;12.106;2023-12-20T11:38:27;9.60;91.90
12632;DHT22;6381;45.748;12.106;2023-12-20T11:40:57;9.70;92.20
12632;DHT22;6381;45.748;12.106;2023-12-20T11:43:36;9.70;92.50
12632;DHT22;6381;45.748;12.106;2023-12-20T11:46:07;9.70;93.70
12632;DHT22;6381;45.748;12.106;2023-12-20T11:48:38;9.80;94.40
12632;DHT22;6381;45.748;12.106;2023-12-20T11:51:10;9.60;96.10
12632;DHT22;6381;45.748;12.106;2023-12-20T11:53:41;9.60;96.10
12632;DHT22;6381;45.748;12.106;2023-12-20T11:56:11;9.20;98.40
12632;DHT22;6381;45.748;12.106;2023-12-20T11:58:43;9.60;97.60
12632;DHT22;6381;45.748;12.106;2023-12-20T12:01:16;9.60;97.90
12632;DHT22;6381;45.748;12.106;2023-12-20T12:03:46;9.50;98.30
12632;DHT22;6381;45.748;12.106;2023-12-20T12:06:16;9.50;98.90
12632;DHT22;6381;45.748;12.106;2023-12-20T12:08:47;9.40;99.60
12632;DHT22;6381;45.748;12.106;2023-12-20T12:11:16;9.30;99.90
12632;DHT22;6381;45.748;12.106;2023-12-20T12:13:48;9.20;99.90
12632;DHT22;6381;45.748;12.106;2023-12-20T12:16:18;9.20;99.90
12632;DHT22;6381;45.748;12.106;2023-12-20T12:18:56;9.00;99.90
12632;DHT22;6381;45.748;12.106;2023-12-20T12:21:26;9.10;99.90
12632;DHT22;6381;45.748;12.106;2023-12-20T12:24:07;9.20;99.90
12632;DHT22;6381;45.748;12.106;2023-12-20T12:26:38;9.20;99.90
12632;DHT22;6381;45.748;12.106;2023-12-20T12:29:12;9.20;99.90
12632;DHT22;6381;45.748;12.106;2023-12-20T12:31:44;9.10;99.90
12632;DHT22;6381;45.748;12.106;2023-12-20T12:34:16;9.10;99.90
12632;DHT22;6381;45.748;12.106;2023-12-20T12:36:49;9.10;99.90
12632;DHT22;6381;45.748;12.106;2023-12-20T12:39:22;9.10;99.90
12632;DHT22;6381;45.748;12.106;2023-12-20T12:41:53;9.00;99.90
12632;DHT22;6381;45.748;12.106;2023-12-20T12:44:29;9.20;99.90
12632;DHT22;6381;45.748;12.106;2023-12-20T12:47:01;9.10;99.90
12632;DHT22;6381;45.748;12.106;2023-12-20T12:49:33;9.40;99.90
12632;DHT22;6381;45.748;12.106;2023-12-20T12:52:07;9.30;99.90
12632;DHT22;6381;45.748;12.106;2023-12-20T12:54:40;9.30;99.90
12632;DHT22;6381;45.748;12.106;2023-12-20T12:57:15;9.50;99.90
12632;DHT22;6381;45.748;12.106;2023-12-20T12:59:49;9.40;99.90
12632;DHT22;6381;45.748;12.106;2023-12-20T13:02:20;9.60;99.90
12632;DHT22;6381;45.748;12.106;2023-12-20T13:04:51;9.70;99.90
12632;DHT22;6381;45.748;12.106;2023-12-20T13:07:22;9.70;99.90
12632;DHT22;6381;45.748;12.106;2023-12-20T13:09:56;9.60;99.90
12632;DHT22;6381;45.748;12.106;2023-12-20T13:12:28;9.70;99.90
12632;DHT22;6381;45.748;12.106;2023-12-20T13:14:59;9.70;99.90
12632;DHT22;6381;45.748;12.106;2023-12-20T13:17:32;9.80;99.90
12632;DHT22;6381;45.748;12.106;2023-12-20T13:20:05;9.90;99.90
12632;DHT22;6381;45.748;12.106;2023-12-20T13:22:38;10.10;99.90
12632;DHT22;6381;45.748;12.106;2023-12-20T13:25:08;9.90;99.90
12632;DHT22;6381;45.748;12.106;2023-12-20T13:27:39;9.90;99.90
12632;DHT22;6381;45.748;12.106;2023-12-20T13:30:13;9.90;99.90
12632;DHT22;6381;45.748;12.106;2023-12-20T13:32:46;10.10;99.90
12632;DHT22;6381;45.748;12.106;2023-12-20T13:35:18;10.20;99.90
12632;DHT22;6381;45.748;12.106;2023-12-20T13:37:50;10.10;99.90
12632;DHT22;6381;45.748;12.106;2023-12-20T13:40:22;10.20;99.90
12632;DHT22;6381;45.748;12.106;2023-12-20T13:42:53;10.20;99.90
12632;DHT22;6381;45.748;12.106;2023-12-20T13:45:25;10.50;99.90
12632;DHT22;6381;45.748;12.106;2023-12-20T13:48:01;10.80;99.90
12632;DHT22;6381;45.748;12.106;2023-12-20T13:53:24;11.30;99.90
12632;DHT22;6381;45.748;12.106;2023-12-20T13:55:56;11.40;99.90
12632;DHT22;6381;45.748;12.106;2023-12-20T13:58:27;11.00;99.90
12632;DHT22;6381;45.748;12.106;2023-12-20T14:00:58;11.10;99.90
12632;DHT22;6381;45.748;12.106;2023-12-20T14:03:29;11.50;99.90
12632;DHT22;6381;45.748;12.106;2023-12-20T14:08:34;11.30;99.90
12632;DHT22;6381;45.748;12.106;2023-12-20T14:11:07;11.00;99.90
12632;DHT22;6381;45.748;12.106;2023-12-20T14:13:41;10.90;99.90
12632;DHT22;6381;45.748;12.106;2023-12-20T14:16:14;10.90;99.90
12632;DHT22;6381;45.748;12.106;2023-12-20T14:18:48;10.60;99.90
12632;DHT22;6381;45.748;12.106;2023-12-20T14:21:26;10.40;99.90
12632;DHT22;6381;45.748;12.106;2023-12-20T14:23:58;10.30;99.90
12632;DHT22;6381;45.748;12.106;2023-12-20T14:26:34;10.50;99.90
12632;DHT22;6381;45.748;12.106;2023-12-20T14:29:07;10.80;99.90
12632;DHT22;6381;45.748;12.106;2023-12-20T14:31:39;11.40;99.90
12632;DHT22;6381;45.748;12.106;2023-12-20T14:34:10;11.40;99.90
12632;DHT22;6381;45.748;12.106;2023-12-20T14:36:41;11.00;99.90
12632;DHT22;6381;45.748;12.106;2023-12-20T14:41:42;10.40;99.90
12632;DHT22;6381;45.748;12.106;2023-12-20T14:44:13;10.20;99.90
12632;DHT22;6381;45.748;12.106;2023-12-20T14:46:44;10.10;99.90
12632;DHT22;6381;45.748;12.106;2023-12-20T14:49:14;10.00;99.90
12632;DHT22;6381;45.748;12.106;2023-12-20T14:51:45;9.90;99.90
12632;DHT22;6381;45.748;12.106;2023-12-20T14:54:16;9.80;99.90
12632;DHT22;6381;45.748;12.106;2023-12-20T14:56:46;9.80;99.90
12632;DHT22;6381;45.748;12.106;2023-12-20T14:59:16;9.70;99.90
12632;DHT22;6381;45.748;12.106;2023-12-20T15:01:47;9.80;99.90
12632;DHT22;6381;45.748;12.106;2023-12-20T15:04:17;9.80;99.90
12632;DHT22;6381;45.748;12.106;2023-12-20T15:06:54;9.60;99.90
12632;DHT22;6381;45.748;12.106;2023-12-20T15:09:24;9.50;99.90
12632;DHT22;6381;45.748;12.106;2023-12-20T15:11:55;9.40;99.90
12632;DHT22;6381;45.748;12.106;2023-12-20T15:14:25;9.40;99.90
12632;DHT22;6381;45.748;12.106;2023-12-20T15:16:59;9.30;99.90
12632;DHT22;6381;45.748;12.106;2023-12-20T15:19:29;9.30;99.90
12632;DHT22;6381;45.748;12.106;2023-12-20T15:21:59;9.10;99.90
12632;DHT22;6381;45.748;12.106;2023-12-20T15:24:29;9.10;99.90
12632;DHT22;6381;45.748;12.106;2023-12-20T15:27:07;9.00;99.90
12632;DHT22;6381;45.748;12.106;2023-12-20T15:29:40;8.90;99.90
12632;DHT22;6381;45.748;12.106;2023-12-20T15:32:12;8.90;99.90
12632;DHT22;6381;45.748;12.106;2023-12-20T15:34:43;9.00;99.90
12632;DHT22;6381;45.748;12.106;2023-12-20T15:37:13;9.00;99.90
12632;DHT22;6381;45.748;12.106;2023-12-20T15:39:43;8.90;99.90
12632;DHT22;6381;45.748;12.106;2023-12-20T15:42:13;9.10;99.90
12632;DHT22;6381;45.748;12.106;2023-12-20T15:44:43;8.90;99.90
12632;DHT22;6381;45.748;12.106;2023-12-20T15:47:14;8.90;99.90
12632;DHT22;6381;45.748;12.106;2023-12-20T15:49:44;9.00;99.90
12632;DHT22;6381;45.748;12.106;2023-12-20T15:52:18;8.90;99.90
12632;DHT22;6381;45.748;12.106;2023-12-20T15:54:47;8.80;99.90
12632;DHT22;6381;45.748;12.106;2023-12-20T15:57:17;8.80;99.90
12632;DHT22;6381;45.748;12.106;2023-12-20T15:59:51;8.70;99.90
12632;DHT22;6381;45.748;12.106;2023-12-20T16:02:23;8.90;99.90
12632;DHT22;6381;45.748;12.106;2023-12-20T16:04:54;8.90;99.90
12632;DHT22;6381;45.748;12.106;2023-12-20T16:07:24;8.90;99.90
12632;DHT22;6381;45.748;12.106;2023-12-20T16:09:55;8.90;99.90
12632;DHT22;6381;45.748;12.106;2023-12-20T16:12:25;9.00;99.90
12632;DHT22;6381;45.748;12.106;2023-12-20T16:14:55;9.10;99.90
12632;DHT22;6381;45.748;12.106;2023-12-20T16:17:27;9.10;99.90
12632;DHT22;6381;45.748;12.106;2023-12-20T16:19:59;9.10;99.90